Scout — WCZ2046 — position and weather

sailwx.info

Track history (hours):
 
Tides and Currents Weather Stations Pressure Air Temp Water Temp Dewpoint Dewpoint Depression Visibility Wind Speed Wind Dir Waves Ship Positions

Scout

Owner: Crowley Marine Services, SEATTLE, WA. More information available from US FCC via Universal Licensing System and Coast Guard Vessel Documentation Center.

Last reported at 2017-Mar-26 11:33 UTC. Time now 2017-Mar-27 10:37 UTC.
Position N 32°42' W 117°09'.

; draft 5.6 m.

Type: Tug. MMSI: 366764730.

Date/timePositionNaut miles runAvg speedWind from/ knotsBaromVisibWave heightAir tempDewpointWater temp
2017-Mar-26 11:33N 32°42' W 117°09'0 0.3
2017-Mar-26 10:33N 32°42' W 117°09'0 0.0
2017-Mar-26 09:31N 32°42' W 117°09'0 0.0
2017-Mar-26 08:31N 32°42' W 117°09'1 0.4
2017-Mar-26 06:05N 32°41' W 117°08'0 0.3
2017-Mar-26 05:32N 32°41' W 117°08'0 0.1
2017-Mar-26 04:31N 32°41' W 117°08'0 0.2
2017-Mar-26 03:31N 32°41' W 117°09'0 0.2
2017-Mar-26 02:31N 32°41' W 117°08'1 0.1
2017-Mar-25 15:14N 32°42' W 117°09'0 0.0
2017-Mar-25 14:28N 32°42' W 117°09'0 0.0
2017-Mar-25 13:27N 32°42' W 117°09'3 1.1
2017-Mar-25 10:33N 32°39' W 117°07'2 1.7
2017-Mar-25 09:32N 32°41' W 117°08'2 0.5
2017-Mar-25 06:33N 32°42' W 117°09'1 0.1
2017-Mar-24 23:32N 32°41' W 117°09'2 1.6
2017-Mar-24 22:31N 32°40' W 117°08'2 1.1
2017-Mar-24 20:33N 32°42' W 117°09'3 2.7
2017-Mar-24 19:23N 32°39' W 117°07'0 0.0
2017-Mar-24 10:28N 32°39' W 117°07'3 3.2
2017-Mar-24 09:32N 32°42' W 117°09'0 0.0
2017-Mar-24 08:33N 32°42' W 117°09'3 0.4
2017-Mar-24 01:30N 32°39' W 117°08'1 0.7
2017-Mar-24 00:33N 32°39' W 117°07'3 1.4
2017-Mar-23 22:23N 32°41' W 117°09'2 0.3
2017-Mar-23 15:33N 32°40' W 117°08'0 0.4
2017-Mar-23 14:33N 32°40' W 117°08'1 0.6
2017-Mar-23 13:33N 32°39' W 117°07'3 0.1
2017-Mar-22 11:25N 32°42' W 117°09'0 0.0
2017-Mar-22 03:05N 32°41' W 117°09'3 5.7
2017-Mar-22 02:32N 32°39' W 117°07'1 0.7
2017-Mar-22 00:28N 32°40' W 117°08'2 0.2
2017-Mar-21 15:09N 32°42' W 117°09'0 0.4
2017-Mar-21 14:32N 32°42' W 117°09'3 2.7
2017-Mar-21 13:23N 32°39' W 117°07'1 1.3
2017-Mar-21 12:33N 32°40' W 117°08'3 0.1
2017-Mar-20 15:26N 32°42' W 117°10'0 0.3
2017-Mar-20 14:05N 32°42' W 117°09'0 0.0
2017-Mar-20 13:32N 32°42' W 117°09'3 0.2
2017-Mar-20 00:26N 32°39' W 117°07'2 2.1
2017-Mar-19 23:27N 32°41' W 117°08'1 0.3
2017-Mar-19 19:15N 32°42' W 117°09'0 0.0
2017-Mar-19 18:33N 32°42' W 117°09'0 0.0
2017-Mar-19 17:30N 32°42' W 117°09'0 0.0
2017-Mar-19 16:33N 32°42' W 117°09'0 0.0
2017-Mar-19 15:15N 32°42' W 117°09'0 0.0
2017-Mar-19 13:27N 32°42' W 117°09'0 0.2
2017-Mar-19 11:32N 32°42' W 117°10'0 0.0
2017-Mar-19 04:12N 32°42' W 117°09'0 0.1
2017-Mar-19 03:33N 32°42' W 117°09'3 2.5
2017-Mar-19 02:26N 32°39' W 117°07'3 3.2
2017-Mar-19 01:33N 32°42' W 117°09'0 0.0
2017-Mar-18 23:13N 32°42' W 117°09'0 0.0
2017-Mar-18 22:34N 32°42' W 117°09'0 0.0
2017-Mar-18 19:27N 32°42' W 117°09'0 0.0
2017-Mar-18 18:23N 32°42' W 117°09'0 0.0
2017-Mar-18 14:34N 32°42' W 117°09'0 0.0
2017-Mar-18 13:27N 32°42' W 117°09'0 0.1
2017-Mar-18 12:33N 32°42' W 117°09'0 0.0
2017-Mar-18 11:33N 32°42' W 117°09'0 0.0
2017-Mar-18 06:15N 32°42' W 117°09'0 0.0
2017-Mar-18 05:30N 32°42' W 117°09'0 0.1
2017-Mar-18 04:31N 32°42' W 117°09'0 0.0
2017-Mar-17 23:04N 32°42' W 117°09'0 0.0
2017-Mar-17 19:30N 32°42' W 117°09'0 0.0
2017-Mar-17 15:32N 32°42' W 117°09'0 0.0
2017-Mar-17 14:33N 32°42' W 117°09'0 0.0
2017-Mar-17 12:17N 32°42' W 117°09'0 0.1
2017-Mar-17 11:30N 32°42' W 117°09'0 0.0
2017-Mar-17 07:30N 32°42' W 117°09'0 0.0
2017-Mar-17 06:22N 32°42' W 117°09'0 0.1
2017-Mar-17 05:32N 32°42' W 117°09'0 0.1
2017-Mar-17 04:32N 32°42' W 117°09'0 0.0
2017-Mar-17 03:32N 32°42' W 117°09'0 0.0
2017-Mar-17 01:26N 32°42' W 117°09'0 0.0
2017-Mar-17 00:20N 32°42' W 117°09'0 0.1
2017-Mar-16 23:23N 32°42' W 117°09'0 0.0
2017-Mar-16 22:33N 32°42' W 117°09'0 0.0
2017-Mar-16 21:05N 32°42' W 117°09'1 2.3
2017-Mar-16 20:28N 32°41' W 117°08'0 0.4
2017-Mar-16 19:30N 32°41' W 117°08'1 0.5
2017-Mar-16 17:28N 32°42' W 117°09'0 0.1
2017-Mar-16 16:33N 32°42' W 117°09'0 0.0
2017-Mar-16 15:30N 32°42' W 117°09'0 0.0
2017-Mar-16 14:33N 32°42' W 117°09'3 3.4
2017-Mar-16 13:33N 32°39' W 117°07'  
Track history (hours):
 
Tides and Currents Weather Stations Pressure Air Temp Water Temp Dewpoint Dewpoint Depression Visibility Wind Speed Wind Dir Waves Ship Positions

Scout

Owner: Crowley Marine Services, SEATTLE, WA. More information available from US FCC via Universal Licensing System and Coast Guard Vessel Documentation Center.

Last reported at 2017-Mar-26 11:33 UTC. Time now 2017-Mar-27 10:37 UTC.
Position N 32°42' W 117°09'.

; draft 5.6 m.

Type: Tug. MMSI: 366764730.

Date/timePositionNaut miles runAvg speedWind from/ knotsBaromVisibWave heightAir tempDewpointWater temp
2017-Mar-26 11:33N 32°42' W 117°09'0 0.3
2017-Mar-26 10:33N 32°42' W 117°09'0 0.0
2017-Mar-26 09:31N 32°42' W 117°09'0 0.0
2017-Mar-26 08:31N 32°42' W 117°09'1 0.4
2017-Mar-26 06:05N 32°41' W 117°08'0 0.3
2017-Mar-26 05:32N 32°41' W 117°08'0 0.1
2017-Mar-26 04:31N 32°41' W 117°08'0 0.2
2017-Mar-26 03:31N 32°41' W 117°09'0 0.2
2017-Mar-26 02:31N 32°41' W 117°08'1 0.1
2017-Mar-25 15:14N 32°42' W 117°09'0 0.0
2017-Mar-25 14:28N 32°42' W 117°09'0 0.0
2017-Mar-25 13:27N 32°42' W 117°09'3 1.1
2017-Mar-25 10:33N 32°39' W 117°07'2 1.7
2017-Mar-25 09:32N 32°41' W 117°08'2 0.5
2017-Mar-25 06:33N 32°42' W 117°09'1 0.1
2017-Mar-24 23:32N 32°41' W 117°09'2 1.6
2017-Mar-24 22:31N 32°40' W 117°08'2 1.1
2017-Mar-24 20:33N 32°42' W 117°09'3 2.7
2017-Mar-24 19:23N 32°39' W 117°07'0 0.0
2017-Mar-24 10:28N 32°39' W 117°07'3 3.2
2017-Mar-24 09:32N 32°42' W 117°09'0 0.0
2017-Mar-24 08:33N 32°42' W 117°09'3 0.4
2017-Mar-24 01:30N 32°39' W 117°08'1 0.7
2017-Mar-24 00:33N 32°39' W 117°07'3 1.4
2017-Mar-23 22:23N 32°41' W 117°09'2 0.3
2017-Mar-23 15:33N 32°40' W 117°08'0 0.4
2017-Mar-23 14:33N 32°40' W 117°08'1 0.6
2017-Mar-23 13:33N 32°39' W 117°07'3 0.1
2017-Mar-22 11:25N 32°42' W 117°09'0 0.0
2017-Mar-22 03:05N 32°41' W 117°09'3 5.7
2017-Mar-22 02:32N 32°39' W 117°07'1 0.7
2017-Mar-22 00:28N 32°40' W 117°08'2 0.2
2017-Mar-21 15:09N 32°42' W 117°09'0 0.4
2017-Mar-21 14:32N 32°42' W 117°09'3 2.7
2017-Mar-21 13:23N 32°39' W 117°07'1 1.3
2017-Mar-21 12:33N 32°40' W 117°08'3 0.1
2017-Mar-20 15:26N 32°42' W 117°10'0 0.3
2017-Mar-20 14:05N 32°42' W 117°09'0 0.0
2017-Mar-20 13:32N 32°42' W 117°09'3 0.2
2017-Mar-20 00:26N 32°39' W 117°07'2 2.1
2017-Mar-19 23:27N 32°41' W 117°08'1 0.3
2017-Mar-19 19:15N 32°42' W 117°09'0 0.0
2017-Mar-19 18:33N 32°42' W 117°09'0 0.0
2017-Mar-19 17:30N 32°42' W 117°09'0 0.0
2017-Mar-19 16:33N 32°42' W 117°09'0 0.0
2017-Mar-19 15:15N 32°42' W 117°09'0 0.0
2017-Mar-19 13:27N 32°42' W 117°09'0 0.2
2017-Mar-19 11:32N 32°42' W 117°10'0 0.0
2017-Mar-19 04:12N 32°42' W 117°09'0 0.1
2017-Mar-19 03:33N 32°42' W 117°09'3 2.5
2017-Mar-19 02:26N 32°39' W 117°07'3 3.2
2017-Mar-19 01:33N 32°42' W 117°09'0 0.0
2017-Mar-18 23:13N 32°42' W 117°09'0 0.0
2017-Mar-18 22:34N 32°42' W 117°09'0 0.0
2017-Mar-18 19:27N 32°42' W 117°09'0 0.0
2017-Mar-18 18:23N 32°42' W 117°09'0 0.0
2017-Mar-18 14:34N 32°42' W 117°09'0 0.0
2017-Mar-18 13:27N 32°42' W 117°09'0 0.1
2017-Mar-18 12:33N 32°42' W 117°09'0 0.0
2017-Mar-18 11:33N 32°42' W 117°09'0 0.0
2017-Mar-18 06:15N 32°42' W 117°09'0 0.0
2017-Mar-18 05:30N 32°42' W 117°09'0 0.1
2017-Mar-18 04:31N 32°42' W 117°09'0 0.0
2017-Mar-17 23:04N 32°42' W 117°09'0 0.0
2017-Mar-17 19:30N 32°42' W 117°09'0 0.0
2017-Mar-17 15:32N 32°42' W 117°09'0 0.0
2017-Mar-17 14:33N 32°42' W 117°09'0 0.0
2017-Mar-17 12:17N 32°42' W 117°09'0 0.1
2017-Mar-17 11:30N 32°42' W 117°09'0 0.0
2017-Mar-17 07:30N 32°42' W 117°09'0 0.0
2017-Mar-17 06:22N 32°42' W 117°09'0 0.1
2017-Mar-17 05:32N 32°42' W 117°09'0 0.1
2017-Mar-17 04:32N 32°42' W 117°09'0 0.0
2017-Mar-17 03:32N 32°42' W 117°09'0 0.0
2017-Mar-17 01:26N 32°42' W 117°09'0 0.0
2017-Mar-17 00:20N 32°42' W 117°09'0 0.1
2017-Mar-16 23:23N 32°42' W 117°09'0 0.0
2017-Mar-16 22:33N 32°42' W 117°09'0 0.0
2017-Mar-16 21:05N 32°42' W 117°09'1 2.3
2017-Mar-16 20:28N 32°41' W 117°08'0 0.4
2017-Mar-16 19:30N 32°41' W 117°08'1 0.5
2017-Mar-16 17:28N 32°42' W 117°09'0 0.1
2017-Mar-16 16:33N 32°42' W 117°09'0 0.0
2017-Mar-16 15:30N 32°42' W 117°09'0 0.0
2017-Mar-16 14:33N 32°42' W 117°09'3 3.4
2017-Mar-16 13:33N 32°39' W 117°07'  

Dump ship's entire track history